Time;durP1;ratioP1;P1;durP2;ratioP2;P2;SDS_P1;SDS_P2;PMS_P1;PMS_P2;Temp;Humidity;BMP_temperature;BMP_pressure;BME280_temperature;BME280_humidity;BME280_pressure;Samples;Min_cycle;Max_cycle;Signal;HPM_P1;HPM_P2
2022/12/31 00:00:00;;;;;;;0.5;0.5;;;;;;;12.5;100.0;100100;;;;
2022/12/31 00:01:00;;;;;;;0.5;0.5;;;;;;;12.5;100.0;100100;;;;
2022/12/31 00:02:00;;;;;;;0.5;0.5;;;;;;;12.4;100.0;100100;;;;
2022/12/31 00:03:00;;;;;;;0.5;0.5;;;;;;;12.4;100.0;100100;;;;
2022/12/31 00:04:00;;;;;;;0.5;0.5;;;;;;;12.4;100.0;100090;;;;
2022/12/31 00:05:00;;;;;;;0.5;0.5;;;;;;;12.4;100.0;100090;;;;
2022/12/31 00:06:00;;;;;;;0.5;0.5;;;;;;;12.5;100.0;100100;;;;
2022/12/31 00:07:00;;;;;;;0.5;0.5;;;;;;;12.5;100.0;100100;;;;
2022/12/31 00:08:00;;;;;;;0.5;0.5;;;;;;;12.5;100.0;100100;;;;
2022/12/31 00:09:01;;;;;;;0.5;0.5;;;;;;;12.5;100.0;100100;;;;
2022/12/31 00:10:00;;;;;;;0.5;0.5;;;;;;;12.4;100.0;100100;;;;
2022/12/31 00:11:00;;;;;;;0.5;0.5;;;;;;;12.4;100.0;100100;;;;
2022/12/31 00:12:00;;;;;;;0.5;0.5;;;;;;;12.5;100.0;100100;;;;
2022/12/31 00:13:00;;;;;;;0.5;0.5;;;;;;;12.5;100.0;100100;;;;
2022/12/31 00:14:00;;;;;;;0.5;0.5;;;;;;;12.5;100.0;100100;;;;
2022/12/31 00:15:00;;;;;;;0.5;0.5;;;;;;;12.5;100.0;100100;;;;
2022/12/31 00:16:12;;;;;;;0.5;0.5;;;;;;;12.5;100.0;100100;;;;
2022/12/31 00:17:00;;;;;;;0.5;0.5;;;;;;;12.5;100.0;100100;;;;
2022/12/31 00:18:00;;;;;;;0.5;0.5;;;;;;;12.5;100.0;100100;;;;
2022/12/31 00:19:00;;;;;;;0.5;0.5;;;;;;;12.5;100.0;100100;;;;
2022/12/31 00:20:00;;;;;;;0.5;0.5;;;;;;;12.5;100.0;100100;;;;
2022/12/31 00:21:03;;;;;;;0.5;0.5;;;;;;;12.5;100.0;100100;;;;
2022/12/31 00:22:00;;;;;;;0.5;0.5;;;;;;;12.6;100.0;100100;;;;
2022/12/31 00:23:00;;;;;;;0.5;0.5;;;;;;;12.6;100.0;100100;;;;
2022/12/31 00:24:01;;;;;;;0.6;0.6;;;;;;;12.5;100.0;100110;;;;
2022/12/31 00:25:00;;;;;;;0.6;0.6;;;;;;;12.5;100.0;100110;;;;
2022/12/31 00:26:09;;;;;;;0.6;0.6;;;;;;;12.5;100.0;100100;;;;
2022/12/31 00:27:00;;;;;;;0.6;0.6;;;;;;;12.5;100.0;100100;;;;
2022/12/31 00:28:00;;;;;;;0.6;0.6;;;;;;;12.5;100.0;100100;;;;
2022/12/31 00:29:00;;;;;;;0.6;0.6;;;;;;;12.5;100.0;100100;;;;
2022/12/31 00:30:05;;;;;;;0.6;0.6;;;;;;;12.5;100.0;100100;;;;
2022/12/31 00:31:04;;;;;;;0.6;0.6;;;;;;;12.5;100.0;100100;;;;
2022/12/31 00:32:00;;;;;;;0.6;0.6;;;;;;;12.6;100.0;100100;;;;
2022/12/31 00:33:00;;;;;;;0.6;0.6;;;;;;;12.6;100.0;100100;;;;
2022/12/31 00:34:00;;;;;;;0.6;0.6;;;;;;;12.6;100.0;100110;;;;
2022/12/31 00:35:00;;;;;;;0.6;0.6;;;;;;;12.6;100.0;100110;;;;
2022/12/31 00:36:04;;;;;;;0.6;0.6;;;;;;;12.4;100.0;100110;;;;
2022/12/31 00:37:00;;;;;;;0.6;0.6;;;;;;;12.4;100.0;100110;;;;
2022/12/31 00:38:00;;;;;;;0.6;0.6;;;;;;;12.4;100.0;100100;;;;
2022/12/31 00:39:00;;;;;;;0.6;0.6;;;;;;;12.4;100.0;100100;;;;
2022/12/31 00:40:00;;;;;;;0.6;0.6;;;;;;;12.5;100.0;100100;;;;
2022/12/31 00:41:00;;;;;;;0.6;0.6;;;;;;;12.5;100.0;100100;;;;
2022/12/31 00:42:00;;;;;;;0.6;0.6;;;;;;;12.5;100.0;100100;;;;
2022/12/31 00:43:00;;;;;;;0.6;0.6;;;;;;;12.5;100.0;100100;;;;
2022/12/31 00:44:00;;;;;;;0.5;0.5;;;;;;;12.5;100.0;100090;;;;
2022/12/31 00:45:00;;;;;;;0.5;0.5;;;;;;;12.5;100.0;100090;;;;
2022/12/31 00:46:00;;;;;;;0.5;0.5;;;;;;;12.5;100.0;100090;;;;
2022/12/31 00:47:00;;;;;;;0.5;0.5;;;;;;;12.5;100.0;100090;;;;
2022/12/31 00:48:00;;;;;;;0.5;0.5;;;;;;;12.5;100.0;100090;;;;
2022/12/31 00:49:00;;;;;;;0.5;0.5;;;;;;;12.5;100.0;100090;;;;
2022/12/31 00:50:00;;;;;;;0.5;0.5;;;;;;;12.5;100.0;100090;;;;
2022/12/31 00:51:00;;;;;;;0.5;0.5;;;;;;;12.5;100.0;100090;;;;
2022/12/31 00:52:00;;;;;;;0.5;0.5;;;;;;;12.6;100.0;100100;;;;
2022/12/31 00:53:00;;;;;;;0.5;0.5;;;;;;;12.6;100.0;100100;;;;
2022/12/31 00:54:00;;;;;;;0.5;0.5;;;;;;;12.5;100.0;100090;;;;
2022/12/31 00:55:00;;;;;;;0.5;0.5;;;;;;;12.5;100.0;100090;;;;
2022/12/31 00:56:04;;;;;;;0.5;0.5;;;;;;;12.7;100.0;100080;;;;
2022/12/31 00:57:00;;;;;;;0.5;0.5;;;;;;;12.7;100.0;100080;;;;
2022/12/31 00:58:00;;;;;;;0.5;0.5;;;;;;;12.6;100.0;100090;;;;
2022/12/31 00:59:00;;;;;;;0.5;0.5;;;;;;;12.6;100.0;100090;;;;
2022/12/31 01:00:00;;;;;;;0.5;0.5;;;;;;;12.6;100.0;100090;;;;
2022/12/31 01:01:08;;;;;;;0.5;0.5;;;;;;;12.6;100.0;100090;;;;
2022/12/31 01:02:00;;;;;;;0.5;0.5;;;;;;;12.6;100.0;100090;;;;
2022/12/31 01:03:00;;;;;;;0.5;0.5;;;;;;;12.6;100.0;100090;;;;
2022/12/31 01:04:03;;;;;;;0.5;0.5;;;;;;;12.6;100.0;100080;;;;
2022/12/31 01:05:00;;;;;;;0.5;0.5;;;;;;;12.6;100.0;100080;;;;
2022/12/31 01:06:00;;;;;;;0.5;0.5;;;;;;;12.6;100.0;100090;;;;
2022/12/31 01:07:00;;;;;;;0.5;0.5;;;;;;;12.6;100.0;100090;;;;
2022/12/31 01:08:00;;;;;;;0.5;0.5;;;;;;;12.6;100.0;100090;;;;
2022/12/31 01:09:00;;;;;;;0.5;0.5;;;;;;;12.6;100.0;100090;;;;
2022/12/31 01:10:00;;;;;;;0.5;0.5;;;;;;;12.6;100.0;100100;;;;
2022/12/31 01:11:18;;;;;;;0.5;0.5;;;;;;;12.6;100.0;100100;;;;
2022/12/31 01:12:00;;;;;;;0.5;0.5;;;;;;;12.6;100.0;100090;;;;
2022/12/31 01:13:00;;;;;;;0.5;0.5;;;;;;;12.6;100.0;100090;;;;
2022/12/31 01:14:03;;;;;;;0.5;0.5;;;;;;;12.6;100.0;100080;;;;
2022/12/31 01:15:00;;;;;;;0.5;0.5;;;;;;;12.6;100.0;100080;;;;
2022/12/31 01:16:10;;;;;;;0.5;0.5;;;;;;;12.6;100.0;100080;;;;
2022/12/31 01:17:00;;;;;;;0.5;0.5;;;;;;;12.6;100.0;100080;;;;
2022/12/31 01:18:00;;;;;;;0.5;0.5;;;;;;;12.6;100.0;100080;;;;
2022/12/31 01:19:02;;;;;;;0.5;0.5;;;;;;;12.6;100.0;100080;;;;
2022/12/31 01:20:00;;;;;;;0.5;0.5;;;;;;;12.5;100.0;100080;;;;
2022/12/31 01:21:02;;;;;;;0.5;0.5;;;;;;;12.5;100.0;100080;;;;
2022/12/31 01:22:00;;;;;;;0.5;0.5;;;;;;;12.6;100.0;100080;;;;
2022/12/31 01:23:00;;;;;;;0.5;0.5;;;;;;;12.6;100.0;100080;;;;
2022/12/31 01:24:00;;;;;;;0.6;0.6;;;;;;;12.6;100.0;100070;;;;
2022/12/31 01:25:00;;;;;;;0.6;0.6;;;;;;;12.6;100.0;100070;;;;
2022/12/31 01:26:01;;;;;;;0.6;0.6;;;;;;;12.7;100.0;100060;;;;
2022/12/31 01:27:00;;;;;;;0.6;0.6;;;;;;;12.7;100.0;100060;;;;
2022/12/31 01:28:00;;;;;;;0.6;0.6;;;;;;;12.6;100.0;100060;;;;
2022/12/31 01:29:00;;;;;;;0.6;0.6;;;;;;;12.6;100.0;100060;;;;
2022/12/31 01:30:00;;;;;;;0.6;0.6;;;;;;;12.6;100.0;100060;;;;
2022/12/31 01:31:08;;;;;;;0.6;0.6;;;;;;;12.6;100.0;100060;;;;
2022/12/31 01:32:00;;;;;;;0.6;0.6;;;;;;;12.6;100.0;100080;;;;
2022/12/31 01:33:00;;;;;;;0.6;0.6;;;;;;;12.6;100.0;100080;;;;
2022/12/31 01:34:00;;;;;;;0.6;0.6;;;;;;;12.6;100.0;100080;;;;
2022/12/31 01:35:00;;;;;;;0.6;0.6;;;;;;;12.6;100.0;100080;;;;
2022/12/31 01:36:01;;;;;;;0.6;0.6;;;;;;;12.6;100.0;100070;;;;
2022/12/31 01:37:00;;;;;;;0.6;0.6;;;;;;;12.6;100.0;100070;;;;
2022/12/31 01:38:00;;;;;;;0.6;0.6;;;;;;;12.6;100.0;100070;;;;
2022/12/31 01:39:01;;;;;;;0.6;0.6;;;;;;;12.6;100.0;100070;;;;
2022/12/31 01:40:00;;;;;;;0.6;0.6;;;;;;;12.6;100.0;100070;;;;
2022/12/31 01:41:00;;;;;;;0.6;0.6;;;;;;;12.6;100.0;100070;;;;
2022/12/31 01:42:00;;;;;;;0.6;0.6;;;;;;;12.6;100.0;100080;;;;
2022/12/31 01:43:00;;;;;;;0.6;0.6;;;;;;;12.6;100.0;100080;;;;
2022/12/31 01:44:01;;;;;;;0.5;0.5;;;;;;;12.6;100.0;100090;;;;
2022/12/31 01:45:00;;;;;;;0.5;0.5;;;;;;;12.6;100.0;100090;;;;
2022/12/31 01:46:00;;;;;;;0.5;0.5;;;;;;;12.6;100.0;100090;;;;
2022/12/31 01:47:01;;;;;;;0.5;0.5;;;;;;;12.6;100.0;100090;;;;
2022/12/31 01:48:00;;;;;;;0.5;0.5;;;;;;;12.6;100.0;100100;;;;
2022/12/31 01:49:02;;;;;;;0.5;0.5;;;;;;;12.6;100.0;100100;;;;
2022/12/31 01:50:05;;;;;;;0.5;0.5;;;;;;;12.6;100.0;100090;;;;
2022/12/31 01:51:00;;;;;;;0.5;0.5;;;;;;;12.6;100.0;100090;;;;
2022/12/31 01:52:04;;;;;;;0.5;0.5;;;;;;;12.5;100.0;100090;;;;
2022/12/31 01:53:02;;;;;;;0.5;0.5;;;;;;;12.5;100.0;100090;;;;
2022/12/31 01:54:01;;;;;;;0.5;0.5;;;;;;;12.6;100.0;100090;;;;
2022/12/31 01:55:04;;;;;;;0.5;0.5;;;;;;;12.6;100.0;100090;;;;
2022/12/31 01:56:01;;;;;;;0.5;0.5;;;;;;;12.5;100.0;100090;;;;
2022/12/31 01:57:00;;;;;;;0.5;0.5;;;;;;;12.5;100.0;100090;;;;
2022/12/31 01:58:04;;;;;;;0.5;0.5;;;;;;;12.6;100.0;100090;;;;
2022/12/31 01:59:04;;;;;;;0.5;0.5;;;;;;;12.6;100.0;100090;;;;
2022/12/31 02:00:00;;;;;;;0.5;0.5;;;;;;;12.5;100.0;100110;;;;
2022/12/31 02:01:00;;;;;;;0.5;0.5;;;;;;;12.5;100.0;100110;;;;
2022/12/31 02:02:00;;;;;;;0.5;0.5;;;;;;;12.6;100.0;100130;;;;
2022/12/31 02:03:00;;;;;;;0.5;0.5;;;;;;;12.6;100.0;100130;;;;
2022/12/31 02:04:04;;;;;;;0.4;0.4;;;;;;;12.6;100.0;100130;;;;
2022/12/31 02:05:01;;;;;;;0.4;0.4;;;;;;;12.6;100.0;100130;;;;
2022/12/31 02:06:05;;;;;;;0.4;0.4;;;;;;;12.5;100.0;100150;;;;
2022/12/31 02:07:02;;;;;;;0.4;0.4;;;;;;;12.5;100.0;100150;;;;
2022/12/31 02:08:01;;;;;;;0.4;0.4;;;;;;;12.4;100.0;100180;;;;
2022/12/31 02:09:00;;;;;;;0.4;0.4;;;;;;;12.4;100.0;100180;;;;
2022/12/31 02:10:00;;;;;;;0.4;0.4;;;;;;;12.3;100.0;100200;;;;
2022/12/31 02:11:00;;;;;;;0.4;0.4;;;;;;;12.3;100.0;100200;;;;
2022/12/31 02:12:00;;;;;;;0.4;0.4;;;;;;;12.2;100.0;100190;;;;
2022/12/31 02:13:00;;;;;;;0.4;0.4;;;;;;;12.2;100.0;100190;;;;
2022/12/31 02:14:03;;;;;;;0.4;0.4;;;;;;;12.2;100.0;100190;;;;
2022/12/31 02:15:00;;;;;;;0.4;0.4;;;;;;;12.3;100.0;100140;;;;
2022/12/31 02:16:00;;;;;;;0.4;0.4;;;;;;;12.3;100.0;100100;;;;
2022/12/31 02:17:07;;;;;;;0.4;0.4;;;;;;;12.3;100.0;100100;;;;
2022/12/31 02:18:06;;;;;;;0.4;0.4;;;;;;;12.3;100.0;100110;;;;
2022/12/31 02:19:10;;;;;;;0.4;0.4;;;;;;;12.3;100.0;100110;;;;
2022/12/31 02:20:00;;;;;;;0.4;0.4;;;;;;;12.2;100.0;100100;;;;
2022/12/31 02:21:10;;;;;;;0.4;0.4;;;;;;;12.2;100.0;100100;;;;
2022/12/31 02:22:07;;;;;;;0.4;0.4;;;;;;;12.2;100.0;100110;;;;
2022/12/31 02:23:10;;;;;;;0.4;0.4;;;;;;;12.2;100.0;100110;;;;
2022/12/31 02:24:10;;;;;;;0.5;0.5;;;;;;;12.2;100.0;100110;;;;
2022/12/31 02:25:07;;;;;;;0.5;0.5;;;;;;;12.2;100.0;100110;;;;
2022/12/31 02:26:09;;;;;;;0.5;0.5;;;;;;;12.2;100.0;100120;;;;
2022/12/31 02:27:02;;;;;;;0.5;0.5;;;;;;;12.2;100.0;100120;;;;
2022/12/31 02:28:08;;;;;;;0.5;0.5;;;;;;;12.1;100.0;100130;;;;
2022/12/31 02:29:00;;;;;;;0.5;0.5;;;;;;;12.1;100.0;100130;;;;
2022/12/31 02:30:00;;;;;;;0.5;0.5;;;;;;;12.1;100.0;100140;;;;
2022/12/31 02:31:05;;;;;;;0.5;0.5;;;;;;;12.1;100.0;100140;;;;
2022/12/31 02:32:03;;;;;;;0.5;0.5;;;;;;;12.0;100.0;100140;;;;
2022/12/31 02:33:05;;;;;;;0.5;0.5;;;;;;;12.0;100.0;100140;;;;
2022/12/31 02:34:05;;;;;;;0.5;0.5;;;;;;;12.1;100.0;100140;;;;
2022/12/31 02:35:06;;;;;;;0.5;0.5;;;;;;;12.1;100.0;100140;;;;
2022/12/31 02:36:02;;;;;;;0.5;0.5;;;;;;;12.0;100.0;100140;;;;
2022/12/31 02:37:02;;;;;;;0.5;0.5;;;;;;;12.0;100.0;100140;;;;
2022/12/31 02:38:03;;;;;;;0.5;0.5;;;;;;;12.0;100.0;100140;;;;
2022/12/31 02:39:02;;;;;;;0.5;0.5;;;;;;;12.0;100.0;100140;;;;
2022/12/31 02:40:00;;;;;;;0.5;0.5;;;;;;;12.0;100.0;100140;;;;
2022/12/31 02:41:00;;;;;;;0.5;0.5;;;;;;;12.0;100.0;100140;;;;
2022/12/31 02:42:00;;;;;;;0.5;0.5;;;;;;;12.0;100.0;100140;;;;
2022/12/31 02:43:00;;;;;;;0.5;0.5;;;;;;;12.0;100.0;100140;;;;
2022/12/31 02:44:00;;;;;;;0.5;0.5;;;;;;;12.0;100.0;100150;;;;
2022/12/31 02:45:00;;;;;;;0.5;0.5;;;;;;;12.0;100.0;100150;;;;
2022/12/31 02:46:10;;;;;;;0.5;0.5;;;;;;;12.0;100.0;100140;;;;
2022/12/31 02:47:07;;;;;;;0.5;0.5;;;;;;;12.0;100.0;100140;;;;
2022/12/31 02:48:10;;;;;;;0.5;0.5;;;;;;;11.9;100.0;100140;;;;
2022/12/31 02:49:07;;;;;;;0.5;0.5;;;;;;;11.9;100.0;100140;;;;
2022/12/31 02:50:00;;;;;;;0.5;0.5;;;;;;;12.0;100.0;100140;;;;
2022/12/31 02:51:10;;;;;;;0.5;0.5;;;;;;;12.0;100.0;100140;;;;
2022/12/31 02:52:06;;;;;;;0.5;0.5;;;;;;;12.0;100.0;100140;;;;
2022/12/31 02:53:10;;;;;;;0.5;0.5;;;;;;;12.0;100.0;100140;;;;
2022/12/31 02:54:10;;;;;;;0.5;0.5;;;;;;;12.0;100.0;100140;;;;
2022/12/31 02:55:07;;;;;;;0.5;0.5;;;;;;;12.0;100.0;100140;;;;
2022/12/31 02:56:10;;;;;;;0.5;0.5;;;;;;;12.1;100.0;100150;;;;
2022/12/31 02:57:06;;;;;;;0.5;0.5;;;;;;;12.1;100.0;100150;;;;
2022/12/31 02:58:06;;;;;;;0.5;0.5;;;;;;;11.9;100.0;100140;;;;
2022/12/31 03:03:01;;;;;;;0.5;0.5;;;;;;;11.9;100.0;100140;;;;
2022/12/31 03:05:01;;;;;;;0.7;0.7;;;;;;;11.8;100.0;100140;;;;
2022/12/31 03:06:02;;;;;;;0.7;0.7;;;;;;;11.9;100.0;100140;;;;
2022/12/31 03:07:02;;;;;;;0.7;0.7;;;;;;;11.9;100.0;100140;;;;
2022/12/31 03:08:00;;;;;;;0.7;0.7;;;;;;;11.9;100.0;100140;;;;
2022/12/31 03:10:00;;;;;;;0.7;0.7;;;;;;;11.8;100.0;100140;;;;
2022/12/31 03:12:44;;;;;;;0.7;0.7;;;;;;;11.8;100.0;100140;;;;
2022/12/31 03:13:00;;;;;;;0.7;0.7;;;;;;;11.8;100.0;100140;;;;
2022/12/31 03:14:00;;;;;;;0.7;0.7;;;;;;;11.8;100.0;100130;;;;
2022/12/31 03:15:00;;;;;;;0.7;0.7;;;;;;;11.8;100.0;100130;;;;
2022/12/31 03:16:00;;;;;;;0.7;0.7;;;;;;;11.8;100.0;100140;;;;
2022/12/31 03:17:00;;;;;;;0.7;0.7;;;;;;;11.8;100.0;100140;;;;
2022/12/31 03:18:01;;;;;;;0.7;0.7;;;;;;;11.8;100.0;100130;;;;
2022/12/31 03:23:00;;;;;;;0.7;0.7;;;;;;;11.8;100.0;100130;;;;
2022/12/31 03:26:00;;;;;;;0.5;0.5;;;;;;;11.9;100.0;100120;;;;
2022/12/31 03:27:00;;;;;;;0.5;0.5;;;;;;;11.9;100.0;100120;;;;
2022/12/31 03:28:01;;;;;;;0.5;0.5;;;;;;;11.8;100.0;100120;;;;
2022/12/31 03:29:00;;;;;;;0.5;0.5;;;;;;;11.8;100.0;100120;;;;
2022/12/31 03:30:00;;;;;;;0.5;0.5;;;;;;;11.9;100.0;100120;;;;
2022/12/31 03:31:01;;;;;;;0.5;0.5;;;;;;;11.9;100.0;100120;;;;
2022/12/31 03:32:00;;;;;;;0.5;0.5;;;;;;;11.9;100.0;100110;;;;
2022/12/31 03:33:00;;;;;;;0.5;0.5;;;;;;;11.9;100.0;100110;;;;
2022/12/31 03:34:00;;;;;;;0.5;0.5;;;;;;;11.8;100.0;100110;;;;
2022/12/31 03:35:00;;;;;;;0.5;0.5;;;;;;;11.8;100.0;100110;;;;
2022/12/31 03:36:04;;;;;;;0.5;0.5;;;;;;;11.8;100.0;100110;;;;
2022/12/31 03:37:00;;;;;;;0.5;0.5;;;;;;;11.8;100.0;100110;;;;
2022/12/31 03:38:00;;;;;;;0.5;0.5;;;;;;;11.8;100.0;100110;;;;
2022/12/31 03:39:00;;;;;;;0.5;0.5;;;;;;;11.8;100.0;100110;;;;
2022/12/31 03:40:00;;;;;;;0.5;0.5;;;;;;;11.8;100.0;100120;;;;
2022/12/31 03:41:00;;;;;;;0.5;0.5;;;;;;;11.8;100.0;100120;;;;
2022/12/31 03:42:00;;;;;;;0.5;0.5;;;;;;;11.8;100.0;100100;;;;
2022/12/31 03:43:00;;;;;;;0.5;0.5;;;;;;;11.8;100.0;100100;;;;
2022/12/31 03:44:00;;;;;;;0.6;0.6;;;;;;;11.8;100.0;100080;;;;
2022/12/31 03:45:00;;;;;;;0.6;0.6;;;;;;;11.8;100.0;100080;;;;
2022/12/31 03:46:00;;;;;;;0.6;0.6;;;;;;;11.8;100.0;100100;;;;
2022/12/31 03:47:00;;;;;;;0.6;0.6;;;;;;;11.8;100.0;100100;;;;
2022/12/31 03:48:00;;;;;;;0.6;0.6;;;;;;;11.8;100.0;100100;;;;
2022/12/31 03:49:00;;;;;;;0.6;0.6;;;;;;;11.8;100.0;100100;;;;
2022/12/31 03:50:00;;;;;;;0.6;0.6;;;;;;;11.8;100.0;100100;;;;
2022/12/31 03:51:00;;;;;;;0.6;0.6;;;;;;;11.8;100.0;100100;;;;
2022/12/31 03:52:01;;;;;;;0.6;0.6;;;;;;;11.8;100.0;100100;;;;
2022/12/31 03:53:00;;;;;;;0.6;0.6;;;;;;;11.8;100.0;100100;;;;
2022/12/31 03:54:00;;;;;;;0.6;0.6;;;;;;;11.8;100.0;100100;;;;
2022/12/31 03:55:01;;;;;;;0.6;0.6;;;;;;;11.8;100.0;100100;;;;
2022/12/31 03:56:00;;;;;;;0.6;0.6;;;;;;;11.7;100.0;100100;;;;
2022/12/31 03:57:00;;;;;;;0.6;0.6;;;;;;;11.7;100.0;100100;;;;
2022/12/31 03:58:00;;;;;;;0.6;0.6;;;;;;;11.8;100.0;100100;;;;
2022/12/31 03:59:00;;;;;;;0.6;0.6;;;;;;;11.8;100.0;100100;;;;
2022/12/31 04:00:00;;;;;;;0.6;0.6;;;;;;;11.8;100.0;100100;;;;
2022/12/31 04:01:00;;;;;;;0.6;0.6;;;;;;;11.8;100.0;100100;;;;
2022/12/31 04:02:00;;;;;;;0.6;0.6;;;;;;;11.8;100.0;100100;;;;
2022/12/31 04:03:00;;;;;;;0.6;0.6;;;;;;;11.8;100.0;100100;;;;
2022/12/31 04:04:00;;;;;;;0.6;0.6;;;;;;;11.9;100.0;100100;;;;
2022/12/31 04:05:00;;;;;;;0.6;0.6;;;;;;;11.9;100.0;100100;;;;
2022/12/31 04:06:00;;;;;;;0.6;0.6;;;;;;;11.9;100.0;100100;;;;
2022/12/31 04:07:00;;;;;;;0.6;0.6;;;;;;;11.9;100.0;100100;;;;
2022/12/31 04:08:01;;;;;;;0.6;0.6;;;;;;;11.9;100.0;100100;;;;
2022/12/31 04:09:00;;;;;;;0.6;0.6;;;;;;;11.9;100.0;100100;;;;
2022/12/31 04:10:00;;;;;;;0.6;0.6;;;;;;;11.9;100.0;100100;;;;
2022/12/31 04:11:00;;;;;;;0.6;0.6;;;;;;;11.9;100.0;100100;;;;
2022/12/31 04:12:00;;;;;;;0.6;0.6;;;;;;;11.8;100.0;100100;;;;
2022/12/31 04:13:03;;;;;;;0.6;0.6;;;;;;;11.8;100.0;100100;;;;
2022/12/31 04:14:00;;;;;;;0.6;0.6;;;;;;;11.9;100.0;100110;;;;
2022/12/31 04:15:00;;;;;;;0.6;0.6;;;;;;;11.9;100.0;100110;;;;
2022/12/31 04:16:00;;;;;;;0.6;0.6;;;;;;;11.9;100.0;100110;;;;
2022/12/31 04:17:00;;;;;;;0.6;0.6;;;;;;;11.9;100.0;100110;;;;
2022/12/31 04:18:00;;;;;;;0.6;0.6;;;;;;;11.9;100.0;100120;;;;
2022/12/31 04:19:00;;;;;;;0.6;0.6;;;;;;;11.9;100.0;100120;;;;
2022/12/31 04:20:00;;;;;;;0.6;0.6;;;;;;;11.9;100.0;100120;;;;
2022/12/31 04:21:01;;;;;;;0.6;0.6;;;;;;;11.9;100.0;100120;;;;
2022/12/31 04:22:00;;;;;;;0.6;0.6;;;;;;;11.9;100.0;100110;;;;
2022/12/31 04:23:00;;;;;;;0.6;0.6;;;;;;;11.9;100.0;100110;;;;
2022/12/31 04:24:01;;;;;;;0.6;0.6;;;;;;;12.0;100.0;100110;;;;
2022/12/31 04:25:00;;;;;;;0.6;0.6;;;;;;;12.0;100.0;100110;;;;
2022/12/31 04:26:00;;;;;;;0.6;0.6;;;;;;;12.0;100.0;100110;;;;
2022/12/31 04:27:07;;;;;;;0.6;0.6;;;;;;;12.0;100.0;100110;;;;
2022/12/31 04:28:00;;;;;;;0.6;0.6;;;;;;;11.9;100.0;100110;;;;
2022/12/31 04:29:00;;;;;;;0.6;0.6;;;;;;;11.9;100.0;100110;;;;
2022/12/31 04:30:00;;;;;;;0.6;0.6;;;;;;;12.0;100.0;100120;;;;
2022/12/31 04:31:00;;;;;;;0.6;0.6;;;;;;;12.0;100.0;100120;;;;
2022/12/31 04:32:00;;;;;;;0.6;0.6;;;;;;;11.9;100.0;100120;;;;
2022/12/31 04:33:00;;;;;;;0.6;0.6;;;;;;;11.9;100.0;100120;;;;
2022/12/31 04:34:00;;;;;;;0.6;0.6;;;;;;;11.9;100.0;100110;;;;
2022/12/31 04:35:00;;;;;;;0.6;0.6;;;;;;;11.9;100.0;100110;;;;
2022/12/31 04:36:01;;;;;;;0.6;0.6;;;;;;;12.0;100.0;100110;;;;
2022/12/31 04:37:00;;;;;;;0.6;0.6;;;;;;;12.0;100.0;100110;;;;
2022/12/31 04:38:00;;;;;;;0.6;0.6;;;;;;;11.9;100.0;100100;;;;
2022/12/31 04:39:00;;;;;;;0.6;0.6;;;;;;;11.9;100.0;100100;;;;
2022/12/31 04:40:06;;;;;;;0.6;0.6;;;;;;;11.9;100.0;100090;;;;
2022/12/31 04:42:00;;;;;;;0.6;0.6;;;;;;;11.9;100.0;100090;;;;
2022/12/31 04:43:00;;;;;;;0.6;0.6;;;;;;;11.9;100.0;100090;;;;
2022/12/31 04:44:00;;;;;;;0.6;0.6;;;;;;;11.9;100.0;100090;;;;
2022/12/31 04:45:00;;;;;;;0.6;0.6;;;;;;;11.9;100.0;100090;;;;
2022/12/31 04:46:00;;;;;;;0.6;0.6;;;;;;;11.9;100.0;100080;;;;
2022/12/31 04:47:00;;;;;;;0.6;0.6;;;;;;;11.9;100.0;100080;;;;
2022/12/31 04:48:00;;;;;;;0.6;0.6;;;;;;;11.8;100.0;100080;;;;
2022/12/31 04:49:00;;;;;;;0.6;0.6;;;;;;;11.8;100.0;100080;;;;
2022/12/31 04:50:00;;;;;;;0.6;0.6;;;;;;;11.8;100.0;100080;;;;
2022/12/31 04:51:00;;;;;;;0.6;0.6;;;;;;;11.8;100.0;100080;;;;
2022/12/31 04:52:00;;;;;;;0.6;0.6;;;;;;;11.9;100.0;100080;;;;
2022/12/31 04:53:00;;;;;;;0.6;0.6;;;;;;;11.9;100.0;100080;;;;
2022/12/31 04:54:00;;;;;;;0.6;0.6;;;;;;;11.9;100.0;100090;;;;
2022/12/31 04:55:00;;;;;;;0.6;0.6;;;;;;;11.9;100.0;100090;;;;
2022/12/31 04:56:00;;;;;;;0.6;0.6;;;;;;;11.9;100.0;100120;;;;
2022/12/31 04:57:00;;;;;;;0.6;0.6;;;;;;;11.9;100.0;100120;;;;
2022/12/31 04:58:00;;;;;;;0.6;0.6;;;;;;;11.9;100.0;100090;;;;
2022/12/31 04:59:00;;;;;;;0.6;0.6;;;;;;;11.9;100.0;100090;;;;
2022/12/31 05:00:00;;;;;;;0.6;0.6;;;;;;;11.9;100.0;100100;;;;
2022/12/31 05:01:00;;;;;;;0.6;0.6;;;;;;;11.9;100.0;100100;;;;
2022/12/31 05:02:00;;;;;;;0.6;0.6;;;;;;;11.9;100.0;100110;;;;
2022/12/31 05:03:00;;;;;;;0.6;0.6;;;;;;;11.9;100.0;100110;;;;
2022/12/31 05:04:00;;;;;;;0.6;0.6;;;;;;;11.9;100.0;100110;;;;
2022/12/31 05:05:00;;;;;;;0.6;0.6;;;;;;;11.9;100.0;100110;;;;
2022/12/31 05:06:01;;;;;;;0.6;0.6;;;;;;;11.9;100.0;100120;;;;
2022/12/31 05:07:00;;;;;;;0.6;0.6;;;;;;;11.9;100.0;100120;;;;
2022/12/31 05:08:00;;;;;;;0.6;0.6;;;;;;;11.8;100.0;100120;;;;
2022/12/31 05:09:00;;;;;;;0.6;0.6;;;;;;;11.8;100.0;100120;;;;
2022/12/31 05:10:00;;;;;;;0.6;0.6;;;;;;;11.8;100.0;100120;;;;
2022/12/31 05:11:00;;;;;;;0.6;0.6;;;;;;;11.8;100.0;100120;;;;
2022/12/31 05:12:00;;;;;;;0.6;0.6;;;;;;;11.8;100.0;100110;;;;
2022/12/31 05:13:00;;;;;;;0.6;0.6;;;;;;;11.8;100.0;100110;;;;
2022/12/31 05:14:00;;;;;;;0.6;0.6;;;;;;;11.8;100.0;100120;;;;
2022/12/31 05:15:00;;;;;;;0.6;0.6;;;;;;;11.8;100.0;100120;;;;
2022/12/31 05:16:01;;;;;;;0.6;0.6;;;;;;;11.9;100.0;100120;;;;
2022/12/31 05:17:00;;;;;;;0.6;0.6;;;;;;;11.9;100.0;100120;;;;
2022/12/31 05:18:00;;;;;;;0.6;0.6;;;;;;;11.8;100.0;100130;;;;
2022/12/31 05:19:00;;;;;;;0.6;0.6;;;;;;;11.8;100.0;100130;;;;
2022/12/31 05:20:00;;;;;;;0.6;0.6;;;;;;;11.8;100.0;100130;;;;
2022/12/31 05:21:00;;;;;;;0.6;0.6;;;;;;;11.8;100.0;100130;;;;
2022/12/31 05:23:00;;;;;;;0.7;0.7;;;;;;;11.9;100.0;100140;;;;
2022/12/31 05:24:00;;;;;;;0.7;0.7;;;;;;;11.9;100.0;100150;;;;
2022/12/31 05:25:00;;;;;;;0.7;0.7;;;;;;;11.9;100.0;100150;;;;
2022/12/31 05:26:00;;;;;;;0.7;0.7;;;;;;;11.9;100.0;100140;;;;
2022/12/31 05:27:00;;;;;;;0.7;0.7;;;;;;;11.9;100.0;100140;;;;
2022/12/31 05:28:00;;;;;;;0.7;0.7;;;;;;;11.9;100.0;100150;;;;
2022/12/31 05:29:00;;;;;;;0.7;0.7;;;;;;;11.9;100.0;100150;;;;
2022/12/31 05:30:00;;;;;;;0.7;0.7;;;;;;;11.9;100.0;100150;;;;
2022/12/31 05:31:00;;;;;;;0.7;0.7;;;;;;;11.9;100.0;100150;;;;
2022/12/31 05:32:00;;;;;;;0.7;0.7;;;;;;;11.9;100.0;100140;;;;
2022/12/31 05:33:00;;;;;;;0.7;0.7;;;;;;;11.9;100.0;100140;;;;
2022/12/31 05:34:00;;;;;;;0.7;0.7;;;;;;;11.9;100.0;100140;;;;
2022/12/31 05:35:00;;;;;;;0.7;0.7;;;;;;;11.9;100.0;100140;;;;
2022/12/31 05:36:00;;;;;;;0.7;0.7;;;;;;;11.9;100.0;100150;;;;
2022/12/31 05:37:00;;;;;;;0.7;0.7;;;;;;;11.9;100.0;100150;;;;
2022/12/31 05:38:00;;;;;;;0.7;0.7;;;;;;;11.9;100.0;100150;;;;
2022/12/31 05:39:00;;;;;;;0.7;0.7;;;;;;;11.9;100.0;100150;;;;
2022/12/31 05:40:00;;;;;;;0.7;0.7;;;;;;;11.9;100.0;100150;;;;
2022/12/31 05:41:02;;;;;;;0.7;0.7;;;;;;;11.9;100.0;100150;;;;
2022/12/31 05:42:00;;;;;;;0.7;0.7;;;;;;;11.9;100.0;100150;;;;
2022/12/31 05:43:00;;;;;;;0.5;0.5;;;;;;;11.9;100.0;100150;;;;
2022/12/31 05:44:00;;;;;;;0.5;0.5;;;;;;;12.0;100.0;100150;;;;
2022/12/31 05:45:00;;;;;;;0.5;0.5;;;;;;;12.0;100.0;100150;;;;
2022/12/31 05:46:01;;;;;;;0.5;0.5;;;;;;;11.9;100.0;100150;;;;
2022/12/31 05:47:00;;;;;;;0.5;0.5;;;;;;;11.9;100.0;100150;;;;
2022/12/31 05:48:00;;;;;;;0.5;0.5;;;;;;;12.0;100.0;100140;;;;
2022/12/31 05:49:00;;;;;;;0.5;0.5;;;;;;;12.0;100.0;100140;;;;
2022/12/31 05:50:00;;;;;;;0.5;0.5;;;;;;;11.9;100.0;100160;;;;
2022/12/31 05:51:00;;;;;;;0.5;0.5;;;;;;;11.9;100.0;100160;;;;
2022/12/31 05:52:00;;;;;;;0.5;0.5;;;;;;;11.9;100.0;100150;;;;
2022/12/31 05:53:00;;;;;;;0.5;0.5;;;;;;;11.9;100.0;100150;;;;
2022/12/31 05:54:00;;;;;;;0.5;0.5;;;;;;;11.9;100.0;100150;;;;
2022/12/31 05:55:00;;;;;;;0.5;0.5;;;;;;;11.9;100.0;100150;;;;
2022/12/31 05:56:00;;;;;;;0.5;0.5;;;;;;;11.9;100.0;100160;;;;
2022/12/31 05:57:00;;;;;;;0.5;0.5;;;;;;;11.9;100.0;100160;;;;
2022/12/31 05:58:00;;;;;;;0.5;0.5;;;;;;;11.9;100.0;100170;;;;
2022/12/31 05:59:00;;;;;;;0.5;0.5;;;;;;;11.9;100.0;100170;;;;
2022/12/31 06:00:00;;;;;;;0.5;0.5;;;;;;;12.1;100.0;100160;;;;
2022/12/31 06:01:00;;;;;;;0.5;0.5;;;;;;;12.1;100.0;100160;;;;
2022/12/31 06:02:00;;;;;;;0.5;0.5;;;;;;;12.1;100.0;100170;;;;
2022/12/31 06:03:00;;;;;;;0.5;0.5;;;;;;;12.1;100.0;100170;;;;
2022/12/31 06:04:00;;;;;;;0.5;0.5;;;;;;;12.1;100.0;100160;;;;
2022/12/31 06:05:00;;;;;;;0.5;0.5;;;;;;;12.1;100.0;100160;;;;
2022/12/31 06:06:00;;;;;;;0.5;0.5;;;;;;;12.1;100.0;100170;;;;
2022/12/31 06:07:00;;;;;;;0.5;0.5;;;;;;;12.1;100.0;100170;;;;
2022/12/31 06:08:00;;;;;;;0.5;0.5;;;;;;;12.1;100.0;100170;;;;
2022/12/31 06:09:00;;;;;;;0.5;0.5;;;;;;;12.1;100.0;100170;;;;
2022/12/31 06:10:00;;;;;;;0.5;0.5;;;;;;;12.2;100.0;100180;;;;
2022/12/31 06:11:00;;;;;;;0.5;0.5;;;;;;;12.2;100.0;100180;;;;
2022/12/31 06:12:00;;;;;;;0.5;0.5;;;;;;;12.2;100.0;100170;;;;
2022/12/31 06:13:00;;;;;;;0.5;0.5;;;;;;;12.2;100.0;100170;;;;
2022/12/31 06:14:00;;;;;;;0.5;0.5;;;;;;;12.3;100.0;100170;;;;
2022/12/31 06:15:00;;;;;;;0.5;0.5;;;;;;;12.3;100.0;100170;;;;
2022/12/31 06:16:04;;;;;;;0.5;0.5;;;;;;;12.3;100.0;100160;;;;
2022/12/31 06:17:00;;;;;;;0.5;0.5;;;;;;;12.3;100.0;100160;;;;
2022/12/31 06:18:00;;;;;;;0.5;0.5;;;;;;;12.3;100.0;100170;;;;
2022/12/31 06:19:01;;;;;;;0.5;0.5;;;;;;;12.3;100.0;100170;;;;
2022/12/31 06:20:01;;;;;;;0.5;0.5;;;;;;;12.3;100.0;100170;;;;
2022/12/31 06:21:00;;;;;;;0.5;0.5;;;;;;;12.3;100.0;100170;;;;
2022/12/31 06:22:00;;;;;;;0.5;0.5;;;;;;;12.4;100.0;100180;;;;
2022/12/31 06:23:00;;;;;;;0.5;0.5;;;;;;;12.4;100.0;100180;;;;
2022/12/31 06:24:00;;;;;;;0.5;0.5;;;;;;;12.4;100.0;100170;;;;
2022/12/31 06:25:00;;;;;;;0.5;0.5;;;;;;;12.4;100.0;100170;;;;
2022/12/31 06:26:01;;;;;;;0.5;0.5;;;;;;;12.4;100.0;100180;;;;
2022/12/31 06:27:00;;;;;;;0.5;0.5;;;;;;;12.4;100.0;100180;;;;
2022/12/31 06:28:00;;;;;;;0.5;0.5;;;;;;;12.6;100.0;100170;;;;
2022/12/31 06:29:00;;;;;;;0.5;0.5;;;;;;;12.6;100.0;100170;;;;
2022/12/31 06:30:00;;;;;;;0.5;0.5;;;;;;;12.5;100.0;100170;;;;
2022/12/31 06:31:01;;;;;;;0.5;0.5;;;;;;;12.5;100.0;100170;;;;
2022/12/31 06:32:00;;;;;;;0.5;0.5;;;;;;;12.5;100.0;100150;;;;
2022/12/31 06:33:00;;;;;;;0.5;0.5;;;;;;;12.5;100.0;100150;;;;
2022/12/31 06:34:00;;;;;;;0.5;0.5;;;;;;;12.7;100.0;100140;;;;
2022/12/31 06:35:00;;;;;;;0.5;0.5;;;;;;;12.7;100.0;100140;;;;
2022/12/31 06:36:01;;;;;;;0.5;0.5;;;;;;;12.8;100.0;100160;;;;
2022/12/31 06:37:00;;;;;;;0.5;0.5;;;;;;;12.8;100.0;100160;;;;